Athens, OH

2:38 AM EST on December 16, 2019 (GMT -0500)
Ohio University

Weather History for KUNI - November, 2019

Change the Weather History Date:

Saturday, November 16, 2019

  Actual Average (WUND) Record (WUND)
Temperature  
Mean Temperature 34 °F -  
Max Temperature 45 °F - - (-1)
Min Temperature 23 °F - - (-1)
Degree Days  
Heating Degree Days 31    
Moisture  
Dew Point 26 °F    
Average Humidity 78    
Maximum Humidity 100    
Minimum Humidity 47    
Precipitation  
Precipitation 0.00 in - - ()
Sea Level Pressure  
Sea Level Pressure 30.29 in    
Wind  
Wind Speed 5 mph (NNE)    
Max Wind Speed 14 mph    
Max Gust Speed 18 mph    
Visibility 9 miles    
Events      
Averages and records for this station are not official NWS values.
T = Trace of Precipitation, MM = Missing Value Source: NWS Daily Summary

Daily Weather History Graph

Daily Weather History Graph

Search for Another Location

Airport or City:

Astronomy

Nov. 16, 2019 Rise Set
Actual Time 7:13 AM EST 5:13 PM EST
Civil Twilight 6:44 AM EST 5:42 PM EST
Nautical Twilight 6:12 AM EST 6:14 PM EST
Astronomical Twilight 5:40 AM EST 6:46 PM EST
Moon 8:46 PM EST 11:05 AM EST
Length of Visible Light 10h 58m
Length of Day
10h 00m
Waning Gibbous, 82% of the Moon is Illuminated
Nov 16
Waning Gibbous
Nov 19
Last Quarter
Nov 26
New
Dec 4
First Quarter
Dec 12
Full

Hourly Weather History & Observations

Time (EST) Temp. Windchill Dew Point Humidity Pressure Visibility Wind Dir Wind Speed Gust Speed Precip Events Conditions
12:15 AM 29.5 °F 24.5 °F 26.2 °F 88% 30.34 in 10.0 mi North 4.6 mph - N/A   Clear
12:35 AM 29.7 °F 22.8 °F 26.2 °F 87% 30.34 in 10.0 mi NNE 6.9 mph - N/A   Clear
12:55 AM 29.8 °F 23.0 °F 26.2 °F 86% 30.34 in 10.0 mi NNE 6.9 mph - N/A   Clear
1:15 AM 29.7 °F 22.8 °F 26.4 °F 88% 30.33 in 7.0 mi North 6.9 mph - N/A   Clear
1:35 AM 29.7 °F 22.0 °F 26.4 °F 88% 30.33 in 7.0 mi North 8.1 mph - N/A   Clear
1:55 AM 29.7 °F 24.7 °F 26.6 °F 88% 30.32 in 7.0 mi NNE 4.6 mph - N/A   Clear
2:15 AM 29.1 °F 23.0 °F 26.6 °F 90% 30.33 in 7.0 mi NNE 5.8 mph - N/A   Clear
2:35 AM 28.9 °F 22.8 °F 26.6 °F 91% 30.32 in 7.0 mi NNE 5.8 mph - N/A   Clear
2:55 AM 28.4 °F 22.2 °F 26.2 °F 92% 30.32 in 7.0 mi NNE 5.8 mph - N/A   Clear
3:15 AM 28.4 °F 23.3 °F 26.6 °F 93% 30.31 in 7.0 mi NNE 4.6 mph - N/A   Clear
3:35 AM 27.9 °F 24.0 °F 26.4 °F 94% 30.32 in 7.0 mi NNE 3.5 mph - N/A   Clear
3:55 AM 28.0 °F 24.2 °F 26.2 °F 93% 30.31 in 7.0 mi NNE 3.5 mph - N/A   Clear
4:15 AM 27.1 °F 23.2 °F 25.7 °F 94% 30.31 in 7.0 mi NNE 3.5 mph - N/A   Clear
4:35 AM 27.1 °F 23.2 °F 25.7 °F 94% 30.31 in 7.0 mi North 3.5 mph - N/A   Clear
4:55 AM 27.5 °F - 26.1 °F 94% 30.31 in 7.0 mi Calm Calm - N/A   Clear
5:15 AM 26.2 °F - 25.2 °F 96% 30.32 in 7.0 mi Calm Calm - N/A   Clear
5:35 AM 25.2 °F - 24.6 °F 98% 30.32 in 5.0 mi Calm Calm - N/A   Clear
5:55 AM 24.3 °F - 24.3 °F 100% 30.33 in 5.0 mi Calm Calm - N/A   Clear
6:15 AM 23.9 °F - 23.9 °F 100% 30.33 in 5.0 mi Calm Calm - N/A   Clear
6:35 AM 23.9 °F - 23.9 °F 100% 30.34 in 7.0 mi Calm Calm - N/A   Clear
6:55 AM 24.6 °F - 24.6 °F 100% 30.34 in 7.0 mi Calm Calm - N/A   Clear
7:15 AM 25.2 °F - 25.2 °F 100% 30.35 in 4.0 mi Calm Calm - N/A   Clear
7:35 AM 24.4 °F - 24.4 °F 100% 30.35 in 4.0 mi Calm Calm - N/A   Clear
7:55 AM 26.2 °F - 26.2 °F 100% 30.36 in 5.0 mi Calm Calm - N/A   Clear
8:15 AM 28.6 °F 23.5 °F 28.4 °F 99% 30.36 in 5.0 mi NNE 4.6 mph - N/A   Clear
8:35 AM 30.7 °F 26.0 °F 29.1 °F 94% 30.36 in 7.0 mi NE 4.6 mph - N/A   Clear
8:55 AM 32.4 °F 25.3 °F 29.3 °F 88% 30.36 in 10.0 mi NE 8.1 mph - N/A   Clear
9:15 AM 33.8 °F 26.4 °F 29.3 °F 84% 30.36 in 10.0 mi NE 9.2 mph - N/A   Clear
9:35 AM 35.6 °F 27.1 °F 28.4 °F 75% 30.36 in 10.0 mi NE 12.7 mph 16.1 mph N/A   Clear
9:55 AM 36.5 °F 28.7 °F 28.2 °F 72% 30.36 in 10.0 mi NE 11.5 mph 18.4 mph N/A   Clear
10:15 AM 37.2 °F 29.6 °F 28.0 °F 69% 30.36 in 10.0 mi NNE 11.5 mph - N/A   Clear
10:35 AM 38.8 °F 30.8 °F 27.9 °F 65% 30.35 in 10.0 mi ENE 13.8 mph 17.3 mph N/A   Clear
10:55 AM 40.3 °F 33.9 °F 27.7 °F 61% 30.35 in 10.0 mi NE 10.4 mph 18.4 mph N/A   Clear
11:15 AM 40.3 °F 33.4 °F 27.3 °F 60% 30.34 in 10.0 mi NNE 11.5 mph - N/A   Clear
11:35 AM 40.6 °F 35.4 °F 27.0 °F 58% 30.33 in 10.0 mi NE 8.1 mph - N/A   Clear
11:55 AM 41.9 °F 35.4 °F 27.3 °F 56% 30.32 in 10.0 mi ENE 11.5 mph - N/A   Clear
12:15 PM 41.7 °F 35.6 °F 26.8 °F 55% 30.30 in 10.0 mi NE 10.4 mph - N/A   Clear
12:35 PM 42.8 °F 38.6 °F 26.4 °F 52% 30.29 in 10.0 mi NNE 6.9 mph - N/A   Clear
12:55 PM 42.6 °F 39.0 °F 26.2 °F 52% 30.27 in 10.0 mi NNE 5.8 mph - N/A   Clear
1:15 PM 43.5 °F 38.3 °F 26.4 °F 51% 30.27 in 10.0 mi NNE 9.2 mph - N/A   Clear
1:35 PM 43.9 °F 39.3 °F 26.2 °F 50% 30.26 in 10.0 mi North 8.1 mph - N/A   Clear
1:55 PM 44.4 °F 40.5 °F 26.6 °F 50% 30.25 in 10.0 mi North 6.9 mph - N/A   Clear
2:15 PM 44.6 °F 40.7 °F 26.2 °F 49% 30.24 in 10.0 mi North 6.9 mph - N/A   Clear
2:35 PM 45.0 °F 40.6 °F 26.2 °F 48% 30.24 in 10.0 mi North 8.1 mph - N/A   Clear
3:15 PM 45.1 °F 40.8 °F 25.9 °F 47% 30.23 in 10.0 mi NE 8.1 mph - N/A   Clear
3:35 PM 44.8 °F 40.4 °F 25.7 °F 47% 30.23 in 10.0 mi NNE 8.1 mph - N/A   Clear
3:55 PM 45.1 °F 40.3 °F 25.9 °F 47% 30.23 in 10.0 mi ENE 9.2 mph - N/A   Clear
4:15 PM 44.6 °F 40.7 °F 25.3 °F 47% 30.24 in 10.0 mi North 6.9 mph - N/A   Clear
4:35 PM 43.7 °F 39.7 °F 25.5 °F 49% 30.24 in 10.0 mi NNE 6.9 mph - N/A   Clear
4:55 PM 42.8 °F 38.6 °F 25.7 °F 51% 30.24 in 10.0 mi NNE 6.9 mph - N/A   Clear
5:15 PM 40.8 °F 37.8 °F 25.7 °F 55% 30.24 in 10.0 mi NNE 4.6 mph - N/A   Clear
5:35 PM 40.1 °F 36.9 °F 25.3 °F 56% 30.24 in 10.0 mi NNE 4.6 mph - N/A   Clear
5:55 PM 39.2 °F 37.0 °F 25.5 °F 58% 30.23 in 10.0 mi NNE 3.5 mph - N/A   Clear
6:15 PM 37.2 °F - 25.7 °F 63% 30.24 in 10.0 mi Calm Calm - N/A   Clear
6:35 PM 34.9 °F - 25.5 °F 69% 30.24 in 10.0 mi Calm Calm - N/A   Clear
6:55 PM 33.3 °F - 25.5 °F 73% 30.24 in 10.0 mi Calm Calm - N/A   Clear
7:15 PM 31.1 °F - 25.3 °F 79% 30.24 in 10.0 mi Calm Calm - N/A   Clear
7:35 PM 30.9 °F - 25.7 °F 81% 30.24 in 10.0 mi Calm Calm - N/A   Clear
7:55 PM 29.7 °F - 25.2 °F 83% 30.24 in 10.0 mi Calm Calm - N/A   Clear
8:15 PM 30.0 °F - 25.7 °F 84% 30.23 in 10.0 mi Calm Calm - N/A   Clear
8:35 PM 29.1 °F - 25.2 °F 85% 30.23 in 10.0 mi Calm Calm - N/A   Clear
8:55 PM 28.2 °F - 25.3 °F 89% 30.22 in 10.0 mi Calm Calm - N/A   Clear
9:15 PM 28.2 °F - 25.3 °F 89% 30.22 in 10.0 mi Calm Calm - N/A   Clear
9:35 PM 27.9 °F - 24.8 °F 88% 30.21 in 10.0 mi Calm Calm - N/A   Clear
9:55 PM 27.0 °F - 24.8 °F 92% 30.20 in 10.0 mi Calm Calm - N/A   Clear
10:15 PM 27.1 °F - 24.8 °F 91% 30.20 in 10.0 mi Calm Calm - N/A   Clear
10:35 PM 26.4 °F - 24.6 °F 93% 30.20 in 10.0 mi Calm Calm - N/A   Clear
11:15 PM 25.7 °F - 24.4 °F 95% 30.19 in 10.0 mi Calm Calm - N/A   Clear
11:35 PM 24.8 °F - 23.5 °F 95% 30.18 in 10.0 mi Calm Calm - N/A   Clear
11:55 PM 24.8 °F - 23.7 °F 96% 30.18 in 10.0 mi Calm Calm - N/A   Clear